sensor_id;sensor_type;location;lat;lon;timestamp;P1;durP1;ratioP1;P2;durP2;ratioP2
23146;SDS011;11742;53.532;-1.478;2022-07-23T00:01:18;1.95;;;1.10;;
23146;SDS011;11742;53.532;-1.478;2022-07-23T00:03:44;3.70;;;1.13;;
23146;SDS011;11742;53.532;-1.478;2022-07-23T00:06:10;1.10;;;1.00;;
23146;SDS011;11742;53.532;-1.478;2022-07-23T00:08:36;6.03;;;1.30;;
23146;SDS011;11742;53.532;-1.478;2022-07-23T00:11:02;3.92;;;1.02;;
23146;SDS011;11742;53.532;-1.478;2022-07-23T00:13:28;6.70;;;1.90;;
23146;SDS011;11742;53.532;-1.478;2022-07-23T00:15:54;2.03;;;1.05;;
23146;SDS011;11742;53.532;-1.478;2022-07-23T00:18:20;3.28;;;1.08;;
23146;SDS011;11742;53.532;-1.478;2022-07-23T00:20:46;1.80;;;1.13;;
23146;SDS011;11742;53.532;-1.478;2022-07-23T00:23:12;1.52;;;1.10;;
23146;SDS011;11742;53.532;-1.478;2022-07-23T00:25:37;4.13;;;1.10;;
23146;SDS011;11742;53.532;-1.478;2022-07-23T00:28:03;2.05;;;1.08;;
23146;SDS011;11742;53.532;-1.478;2022-07-23T00:30:30;4.78;;;1.25;;
23146;SDS011;11742;53.532;-1.478;2022-07-23T00:33:00;7.18;;;1.23;;
23146;SDS011;11742;53.532;-1.478;2022-07-23T00:35:30;1.98;;;1.10;;
23146;SDS011;11742;53.532;-1.478;2022-07-23T00:37:58;2.00;;;1.20;;
23146;SDS011;11742;53.532;-1.478;2022-07-23T00:40:25;1.58;;;0.93;;
23146;SDS011;11742;53.532;-1.478;2022-07-23T00:42:52;1.73;;;1.15;;
23146;SDS011;11742;53.532;-1.478;2022-07-23T00:45:18;1.60;;;1.00;;
23146;SDS011;11742;53.532;-1.478;2022-07-23T00:47:44;2.38;;;1.10;;
23146;SDS011;11742;53.532;-1.478;2022-07-23T00:50:10;1.25;;;0.90;;
23146;SDS011;11742;53.532;-1.478;2022-07-23T00:52:36;1.42;;;1.00;;
23146;SDS011;11742;53.532;-1.478;2022-07-23T00:55:03;2.63;;;1.10;;
23146;SDS011;11742;53.532;-1.478;2022-07-23T00:57:29;4.65;;;1.17;;
23146;SDS011;11742;53.532;-1.478;2022-07-23T00:59:55;6.00;;;1.38;;
23146;SDS011;11742;53.532;-1.478;2022-07-23T01:02:23;5.75;;;1.52;;
23146;SDS011;11742;53.532;-1.478;2022-07-23T01:04:51;2.70;;;1.10;;
23146;SDS011;11742;53.532;-1.478;2022-07-23T01:07:18;3.25;;;1.08;;
23146;SDS011;11742;53.532;-1.478;2022-07-23T01:09:45;4.35;;;1.70;;
23146;SDS011;11742;53.532;-1.478;2022-07-23T01:12:11;3.20;;;1.38;;
23146;SDS011;11742;53.532;-1.478;2022-07-23T01:14:37;1.60;;;1.15;;
23146;SDS011;11742;53.532;-1.478;2022-07-23T01:17:03;2.72;;;1.20;;
23146;SDS011;11742;53.532;-1.478;2022-07-23T01:19:29;1.27;;;1.02;;
23146;SDS011;11742;53.532;-1.478;2022-07-23T01:21:56;1.45;;;0.90;;
23146;SDS011;11742;53.532;-1.478;2022-07-23T01:24:23;2.70;;;1.00;;
23146;SDS011;11742;53.532;-1.478;2022-07-23T01:26:49;2.88;;;1.60;;
23146;SDS011;11742;53.532;-1.478;2022-07-23T01:29:15;2.92;;;1.55;;
23146;SDS011;11742;53.532;-1.478;2022-07-23T01:31:41;2.47;;;1.10;;
23146;SDS011;11742;53.532;-1.478;2022-07-23T01:34:07;2.33;;;1.10;;
23146;SDS011;11742;53.532;-1.478;2022-07-23T01:36:34;1.55;;;0.90;;
23146;SDS011;11742;53.532;-1.478;2022-07-23T01:39:01;2.05;;;1.13;;
23146;SDS011;11742;53.532;-1.478;2022-07-23T01:41:27;3.22;;;1.38;;
23146;SDS011;11742;53.532;-1.478;2022-07-23T01:43:53;1.42;;;1.20;;
23146;SDS011;11742;53.532;-1.478;2022-07-23T01:46:19;2.13;;;1.08;;
23146;SDS011;11742;53.532;-1.478;2022-07-23T01:48:44;2.53;;;1.00;;
23146;SDS011;11742;53.532;-1.478;2022-07-23T01:51:10;1.77;;;1.20;;
23146;SDS011;11742;53.532;-1.478;2022-07-23T01:53:36;4.30;;;1.42;;
23146;SDS011;11742;53.532;-1.478;2022-07-23T01:56:02;3.47;;;1.40;;
23146;SDS011;11742;53.532;-1.478;2022-07-23T01:58:28;1.77;;;1.33;;
23146;SDS011;11742;53.532;-1.478;2022-07-23T02:00:54;3.13;;;1.20;;
23146;SDS011;11742;53.532;-1.478;2022-07-23T02:03:21;2.50;;;1.17;;
23146;SDS011;11742;53.532;-1.478;2022-07-23T02:05:47;4.78;;;1.30;;
23146;SDS011;11742;53.532;-1.478;2022-07-23T02:08:12;2.80;;;1.55;;
23146;SDS011;11742;53.532;-1.478;2022-07-23T02:10:38;2.28;;;1.58;;
23146;SDS011;11742;53.532;-1.478;2022-07-23T02:13:04;2.30;;;1.20;;
23146;SDS011;11742;53.532;-1.478;2022-07-23T02:15:30;5.32;;;1.42;;
23146;SDS011;11742;53.532;-1.478;2022-07-23T02:17:56;1.95;;;1.27;;
23146;SDS011;11742;53.532;-1.478;2022-07-23T02:20:22;3.65;;;1.58;;
23146;SDS011;11742;53.532;-1.478;2022-07-23T02:22:48;4.50;;;1.25;;
23146;SDS011;11742;53.532;-1.478;2022-07-23T02:25:14;3.10;;;2.08;;
23146;SDS011;11742;53.532;-1.478;2022-07-23T02:27:40;2.30;;;1.20;;
23146;SDS011;11742;53.532;-1.478;2022-07-23T02:30:06;7.25;;;1.15;;
23146;SDS011;11742;53.532;-1.478;2022-07-23T02:32:32;2.92;;;1.52;;
23146;SDS011;11742;53.532;-1.478;2022-07-23T02:34:58;2.90;;;1.20;;
23146;SDS011;11742;53.532;-1.478;2022-07-23T02:37:24;4.53;;;1.48;;
23146;SDS011;11742;53.532;-1.478;2022-07-23T02:39:50;2.85;;;1.27;;
23146;SDS011;11742;53.532;-1.478;2022-07-23T02:42:16;2.38;;;1.35;;
23146;SDS011;11742;53.532;-1.478;2022-07-23T02:44:42;2.13;;;1.40;;
23146;SDS011;11742;53.532;-1.478;2022-07-23T02:47:08;2.55;;;1.13;;
23146;SDS011;11742;53.532;-1.478;2022-07-23T02:49:34;4.28;;;1.20;;
23146;SDS011;11742;53.532;-1.478;2022-07-23T02:52:00;3.70;;;1.42;;
23146;SDS011;11742;53.532;-1.478;2022-07-23T02:54:25;2.75;;;1.55;;
23146;SDS011;11742;53.532;-1.478;2022-07-23T02:56:51;2.40;;;1.48;;
23146;SDS011;11742;53.532;-1.478;2022-07-23T02:59:17;4.88;;;1.35;;
23146;SDS011;11742;53.532;-1.478;2022-07-23T03:01:43;1.70;;;1.20;;
23146;SDS011;11742;53.532;-1.478;2022-07-23T03:04:09;1.88;;;1.45;;
23146;SDS011;11742;53.532;-1.478;2022-07-23T03:06:35;6.32;;;1.88;;
23146;SDS011;11742;53.532;-1.478;2022-07-23T03:09:01;3.58;;;1.75;;
23146;SDS011;11742;53.532;-1.478;2022-07-23T03:11:27;1.42;;;1.33;;
23146;SDS011;11742;53.532;-1.478;2022-07-23T03:13:53;2.00;;;1.30;;
23146;SDS011;11742;53.532;-1.478;2022-07-23T03:16:19;3.30;;;1.48;;
23146;SDS011;11742;53.532;-1.478;2022-07-23T03:18:45;4.38;;;1.58;;
23146;SDS011;11742;53.532;-1.478;2022-07-23T03:21:10;3.05;;;1.65;;
23146;SDS011;11742;53.532;-1.478;2022-07-23T03:23:36;3.17;;;1.70;;
23146;SDS011;11742;53.532;-1.478;2022-07-23T03:26:02;2.10;;;1.38;;
23146;SDS011;11742;53.532;-1.478;2022-07-23T03:28:27;2.28;;;1.63;;
23146;SDS011;11742;53.532;-1.478;2022-07-23T03:30:53;5.38;;;1.60;;
23146;SDS011;11742;53.532;-1.478;2022-07-23T03:33:19;2.75;;;1.30;;
23146;SDS011;11742;53.532;-1.478;2022-07-23T03:35:45;1.92;;;1.05;;
23146;SDS011;11742;53.532;-1.478;2022-07-23T03:38:12;2.05;;;1.50;;
23146;SDS011;11742;53.532;-1.478;2022-07-23T03:40:38;1.83;;;1.33;;
23146;SDS011;11742;53.532;-1.478;2022-07-23T03:43:04;2.35;;;1.15;;
23146;SDS011;11742;53.532;-1.478;2022-07-23T03:45:30;3.53;;;1.60;;
23146;SDS011;11742;53.532;-1.478;2022-07-23T03:47:56;4.82;;;1.60;;
23146;SDS011;11742;53.532;-1.478;2022-07-23T03:50:22;4.97;;;1.67;;
23146;SDS011;11742;53.532;-1.478;2022-07-23T03:52:48;4.13;;;1.60;;
23146;SDS011;11742;53.532;-1.478;2022-07-23T03:55:14;2.80;;;1.20;;
23146;SDS011;11742;53.532;-1.478;2022-07-23T03:57:40;3.53;;;1.20;;
23146;SDS011;11742;53.532;-1.478;2022-07-23T04:00:06;3.63;;;1.40;;
23146;SDS011;11742;53.532;-1.478;2022-07-23T04:02:34;4.18;;;2.20;;
23146;SDS011;11742;53.532;-1.478;2022-07-23T04:05:01;3.17;;;1.52;;
23146;SDS011;11742;53.532;-1.478;2022-07-23T04:07:26;1.65;;;1.45;;
23146;SDS011;11742;53.532;-1.478;2022-07-23T04:09:52;3.05;;;2.03;;
23146;SDS011;11742;53.532;-1.478;2022-07-23T04:12:18;4.13;;;1.60;;
23146;SDS011;11742;53.532;-1.478;2022-07-23T04:14:44;4.90;;;1.70;;
23146;SDS011;11742;53.532;-1.478;2022-07-23T04:17:10;2.35;;;1.60;;
23146;SDS011;11742;53.532;-1.478;2022-07-23T04:19:36;5.07;;;1.60;;
23146;SDS011;11742;53.532;-1.478;2022-07-23T04:22:07;4.40;;;2.03;;
23146;SDS011;11742;53.532;-1.478;2022-07-23T04:24:33;5.72;;;1.50;;
23146;SDS011;11742;53.532;-1.478;2022-07-23T04:26:59;3.72;;;1.63;;
23146;SDS011;11742;53.532;-1.478;2022-07-23T04:29:25;7.43;;;1.30;;
23146;SDS011;11742;53.532;-1.478;2022-07-23T04:31:51;2.50;;;1.65;;
23146;SDS011;11742;53.532;-1.478;2022-07-23T04:34:17;2.10;;;1.30;;
23146;SDS011;11742;53.532;-1.478;2022-07-23T04:36:43;2.70;;;1.33;;
23146;SDS011;11742;53.532;-1.478;2022-07-23T04:39:08;4.88;;;1.70;;
23146;SDS011;11742;53.532;-1.478;2022-07-23T04:41:34;2.90;;;1.30;;
23146;SDS011;11742;53.532;-1.478;2022-07-23T04:44:00;5.28;;;1.48;;
23146;SDS011;11742;53.532;-1.478;2022-07-23T04:46:27;4.10;;;1.95;;
23146;SDS011;11742;53.532;-1.478;2022-07-23T04:48:53;3.70;;;1.77;;
23146;SDS011;11742;53.532;-1.478;2022-07-23T04:51:19;6.90;;;1.90;;
23146;SDS011;11742;53.532;-1.478;2022-07-23T04:53:44;4.40;;;1.83;;
23146;SDS011;11742;53.532;-1.478;2022-07-23T04:56:10;4.70;;;1.80;;
23146;SDS011;11742;53.532;-1.478;2022-07-23T04:58:36;5.05;;;1.85;;
23146;SDS011;11742;53.532;-1.478;2022-07-23T05:01:02;4.05;;;1.65;;
23146;SDS011;11742;53.532;-1.478;2022-07-23T05:03:27;2.70;;;1.63;;
23146;SDS011;11742;53.532;-1.478;2022-07-23T05:05:53;4.25;;;1.40;;
23146;SDS011;11742;53.532;-1.478;2022-07-23T05:08:19;3.80;;;1.67;;
23146;SDS011;11742;53.532;-1.478;2022-07-23T05:10:45;3.60;;;1.80;;
23146;SDS011;11742;53.532;-1.478;2022-07-23T05:13:11;5.20;;;1.58;;
23146;SDS011;11742;53.532;-1.478;2022-07-23T05:15:37;8.02;;;2.00;;
23146;SDS011;11742;53.532;-1.478;2022-07-23T05:18:02;5.45;;;2.40;;
23146;SDS011;11742;53.532;-1.478;2022-07-23T05:20:28;6.38;;;2.65;;
23146;SDS011;11742;53.532;-1.478;2022-07-23T05:22:54;7.32;;;2.55;;
23146;SDS011;11742;53.532;-1.478;2022-07-23T05:25:20;6.43;;;2.55;;
23146;SDS011;11742;53.532;-1.478;2022-07-23T05:27:45;7.80;;;3.10;;
23146;SDS011;11742;53.532;-1.478;2022-07-23T05:30:11;8.40;;;2.53;;
23146;SDS011;11742;53.532;-1.478;2022-07-23T05:32:37;8.35;;;2.60;;
23146;SDS011;11742;53.532;-1.478;2022-07-23T05:35:04;5.93;;;2.75;;
23146;SDS011;11742;53.532;-1.478;2022-07-23T05:37:30;8.77;;;2.65;;
23146;SDS011;11742;53.532;-1.478;2022-07-23T05:40:00;7.22;;;2.72;;
23146;SDS011;11742;53.532;-1.478;2022-07-23T05:42:36;6.60;;;2.28;;
23146;SDS011;11742;53.532;-1.478;2022-07-23T05:45:03;11.70;;;3.00;;
23146;SDS011;11742;53.532;-1.478;2022-07-23T05:47:46;5.20;;;2.78;;
23146;SDS011;11742;53.532;-1.478;2022-07-23T05:50:13;7.05;;;2.58;;
23146;SDS011;11742;53.532;-1.478;2022-07-23T05:52:39;9.30;;;2.80;;
23146;SDS011;11742;53.532;-1.478;2022-07-23T05:55:05;10.57;;;2.83;;
23146;SDS011;11742;53.532;-1.478;2022-07-23T05:57:32;7.50;;;3.17;;
23146;SDS011;11742;53.532;-1.478;2022-07-23T05:59:58;4.82;;;2.50;;
23146;SDS011;11742;53.532;-1.478;2022-07-23T06:02:24;6.07;;;2.47;;
23146;SDS011;11742;53.532;-1.478;2022-07-23T06:04:49;8.27;;;2.75;;
23146;SDS011;11742;53.532;-1.478;2022-07-23T06:07:15;6.85;;;2.60;;
23146;SDS011;11742;53.532;-1.478;2022-07-23T06:09:41;6.75;;;2.60;;
23146;SDS011;11742;53.532;-1.478;2022-07-23T06:12:07;5.65;;;2.67;;
23146;SDS011;11742;53.532;-1.478;2022-07-23T06:14:33;4.78;;;2.17;;
23146;SDS011;11742;53.532;-1.478;2022-07-23T06:16:58;5.00;;;2.45;;
23146;SDS011;11742;53.532;-1.478;2022-07-23T06:19:24;5.57;;;2.28;;
23146;SDS011;11742;53.532;-1.478;2022-07-23T06:21:51;4.43;;;2.30;;
23146;SDS011;11742;53.532;-1.478;2022-07-23T06:24:16;4.68;;;2.47;;
23146;SDS011;11742;53.532;-1.478;2022-07-23T06:26:42;6.25;;;2.08;;
23146;SDS011;11742;53.532;-1.478;2022-07-23T06:29:08;4.63;;;2.22;;
23146;SDS011;11742;53.532;-1.478;2022-07-23T06:31:34;3.03;;;1.95;;
23146;SDS011;11742;53.532;-1.478;2022-07-23T06:33:59;4.97;;;2.38;;
23146;SDS011;11742;53.532;-1.478;2022-07-23T06:36:25;3.30;;;2.13;;
23146;SDS011;11742;53.532;-1.478;2022-07-23T06:38:51;4.13;;;2.20;;
23146;SDS011;11742;53.532;-1.478;2022-07-23T06:41:17;4.13;;;1.77;;
23146;SDS011;11742;53.532;-1.478;2022-07-23T06:43:43;5.82;;;2.33;;
23146;SDS011;11742;53.532;-1.478;2022-07-23T06:46:09;3.63;;;1.85;;
23146;SDS011;11742;53.532;-1.478;2022-07-23T06:48:34;2.45;;;2.03;;
23146;SDS011;11742;53.532;-1.478;2022-07-23T06:51:01;2.92;;;2.15;;
23146;SDS011;11742;53.532;-1.478;2022-07-23T06:53:27;4.00;;;2.05;;
23146;SDS011;11742;53.532;-1.478;2022-07-23T06:55:53;3.42;;;1.85;;
23146;SDS011;11742;53.532;-1.478;2022-07-23T06:58:19;4.43;;;1.80;;
23146;SDS011;11742;53.532;-1.478;2022-07-23T07:00:45;3.25;;;2.20;;
23146;SDS011;11742;53.532;-1.478;2022-07-23T07:03:11;3.53;;;2.08;;
23146;SDS011;11742;53.532;-1.478;2022-07-23T07:05:37;5.30;;;1.73;;
23146;SDS011;11742;53.532;-1.478;2022-07-23T07:08:04;2.78;;;1.60;;
23146;SDS011;11742;53.532;-1.478;2022-07-23T07:10:30;4.75;;;2.17;;
23146;SDS011;11742;53.532;-1.478;2022-07-23T07:12:56;2.97;;;1.83;;
23146;SDS011;11742;53.532;-1.478;2022-07-23T07:15:22;6.15;;;2.60;;
23146;SDS011;11742;53.532;-1.478;2022-07-23T07:17:48;3.60;;;1.60;;
23146;SDS011;11742;53.532;-1.478;2022-07-23T07:20:13;2.40;;;1.83;;
23146;SDS011;11742;53.532;-1.478;2022-07-23T07:22:39;2.25;;;1.58;;
23146;SDS011;11742;53.532;-1.478;2022-07-23T07:25:06;5.10;;;1.65;;
23146;SDS011;11742;53.532;-1.478;2022-07-23T07:27:32;2.88;;;1.50;;
23146;SDS011;11742;53.532;-1.478;2022-07-23T07:29:58;2.42;;;1.70;;
23146;SDS011;11742;53.532;-1.478;2022-07-23T07:32:23;3.92;;;1.73;;
23146;SDS011;11742;53.532;-1.478;2022-07-23T07:34:50;3.85;;;2.13;;
23146;SDS011;11742;53.532;-1.478;2022-07-23T07:37:15;2.85;;;1.40;;
23146;SDS011;11742;53.532;-1.478;2022-07-23T07:39:41;2.17;;;1.50;;
23146;SDS011;11742;53.532;-1.478;2022-07-23T07:42:07;2.50;;;1.60;;
23146;SDS011;11742;53.532;-1.478;2022-07-23T07:44:33;3.70;;;1.70;;
23146;SDS011;11742;53.532;-1.478;2022-07-23T07:46:59;3.75;;;1.83;;
23146;SDS011;11742;53.532;-1.478;2022-07-23T07:49:24;3.63;;;1.70;;
23146;SDS011;11742;53.532;-1.478;2022-07-23T07:51:50;3.80;;;1.70;;
23146;SDS011;11742;53.532;-1.478;2022-07-23T07:54:16;1.95;;;1.60;;
23146;SDS011;11742;53.532;-1.478;2022-07-23T07:56:42;4.68;;;1.98;;
23146;SDS011;11742;53.532;-1.478;2022-07-23T07:59:07;2.45;;;1.77;;
23146;SDS011;11742;53.532;-1.478;2022-07-23T08:01:33;5.95;;;2.20;;
23146;SDS011;11742;53.532;-1.478;2022-07-23T08:04:02;3.20;;;1.77;;
23146;SDS011;11742;53.532;-1.478;2022-07-23T08:06:27;4.35;;;1.80;;
23146;SDS011;11742;53.532;-1.478;2022-07-23T08:08:53;4.88;;;2.50;;
23146;SDS011;11742;53.532;-1.478;2022-07-23T08:11:19;4.25;;;1.88;;
23146;SDS011;11742;53.532;-1.478;2022-07-23T08:13:45;2.72;;;2.00;;
23146;SDS011;11742;53.532;-1.478;2022-07-23T08:16:11;4.30;;;1.42;;
23146;SDS011;11742;53.532;-1.478;2022-07-23T08:18:37;2.80;;;2.20;;
23146;SDS011;11742;53.532;-1.478;2022-07-23T08:21:02;3.25;;;2.10;;
23146;SDS011;11742;53.532;-1.478;2022-07-23T08:23:31;4.13;;;2.25;;
23146;SDS011;11742;53.532;-1.478;2022-07-23T08:25:57;3.28;;;2.20;;
23146;SDS011;11742;53.532;-1.478;2022-07-23T08:28:24;3.97;;;2.20;;
23146;SDS011;11742;53.532;-1.478;2022-07-23T08:30:50;3.38;;;2.10;;
23146;SDS011;11742;53.532;-1.478;2022-07-23T08:33:16;3.50;;;2.13;;
23146;SDS011;11742;53.532;-1.478;2022-07-23T08:35:47;6.07;;;2.20;;
23146;SDS011;11742;53.532;-1.478;2022-07-23T08:38:16;4.43;;;2.70;;
23146;SDS011;11742;53.532;-1.478;2022-07-23T08:40:44;3.85;;;2.50;;
23146;SDS011;11742;53.532;-1.478;2022-07-23T08:43:16;3.17;;;2.10;;
23146;SDS011;11742;53.532;-1.478;2022-07-23T08:45:49;4.75;;;2.75;;
23146;SDS011;11742;53.532;-1.478;2022-07-23T08:48:18;6.88;;;2.80;;
23146;SDS011;11742;53.532;-1.478;2022-07-23T08:50:50;6.30;;;3.35;;
23146;SDS011;11742;53.532;-1.478;2022-07-23T08:53:24;4.63;;;3.13;;
23146;SDS011;11742;53.532;-1.478;2022-07-23T08:55:51;7.35;;;3.33;;
23146;SDS011;11742;53.532;-1.478;2022-07-23T08:58:19;6.38;;;3.15;;
23146;SDS011;11742;53.532;-1.478;2022-07-23T09:00:46;6.05;;;2.78;;
23146;SDS011;11742;53.532;-1.478;2022-07-23T09:03:19;5.65;;;3.15;;
23146;SDS011;11742;53.532;-1.478;2022-07-23T09:05:46;4.95;;;3.40;;
23146;SDS011;11742;53.532;-1.478;2022-07-23T09:08:15;8.07;;;4.45;;
23146;SDS011;11742;53.532;-1.478;2022-07-23T09:10:57;7.28;;;3.97;;
23146;SDS011;11742;53.532;-1.478;2022-07-23T09:13:28;6.00;;;3.50;;
23146;SDS011;11742;53.532;-1.478;2022-07-23T09:15:58;6.85;;;3.53;;
23146;SDS011;11742;53.532;-1.478;2022-07-23T09:18:33;8.55;;;4.25;;
23146;SDS011;11742;53.532;-1.478;2022-07-23T09:21:05;7.55;;;4.05;;
23146;SDS011;11742;53.532;-1.478;2022-07-23T09:23:39;5.07;;;3.53;;
23146;SDS011;11742;53.532;-1.478;2022-07-23T09:26:17;6.70;;;3.97;;
23146;SDS011;11742;53.532;-1.478;2022-07-23T09:28:59;7.80;;;3.38;;
23146;SDS011;11742;53.532;-1.478;2022-07-23T09:34:27;8.57;;;4.07;;
23146;SDS011;11742;53.532;-1.478;2022-07-23T09:36:56;7.30;;;4.03;;
23146;SDS011;11742;53.532;-1.478;2022-07-23T09:41:53;8.38;;;4.20;;
23146;SDS011;11742;53.532;-1.478;2022-07-23T09:44:19;8.38;;;4.10;;
23146;SDS011;11742;53.532;-1.478;2022-07-23T09:46:47;7.63;;;4.00;;
23146;SDS011;11742;53.532;-1.478;2022-07-23T09:49:21;6.90;;;3.92;;
23146;SDS011;11742;53.532;-1.478;2022-07-23T09:51:55;6.43;;;3.95;;
23146;SDS011;11742;53.532;-1.478;2022-07-23T09:54:24;5.25;;;3.88;;
23146;SDS011;11742;53.532;-1.478;2022-07-23T09:56:54;6.93;;;4.22;;
23146;SDS011;11742;53.532;-1.478;2022-07-23T09:59:25;9.32;;;4.13;;
23146;SDS011;11742;53.532;-1.478;2022-07-23T10:01:53;10.80;;;3.90;;
23146;SDS011;11742;53.532;-1.478;2022-07-23T10:04:22;5.43;;;3.85;;
23146;SDS011;11742;53.532;-1.478;2022-07-23T10:06:52;110.25;;;10.50;;
23146;SDS011;11742;53.532;-1.478;2022-07-23T10:09:24;106.07;;;10.55;;
23146;SDS011;11742;53.532;-1.478;2022-07-23T10:12:02;19.35;;;5.20;;
23146;SDS011;11742;53.532;-1.478;2022-07-23T10:14:40;15.43;;;4.88;;
23146;SDS011;11742;53.532;-1.478;2022-07-23T10:17:07;13.52;;;4.47;;
23146;SDS011;11742;53.532;-1.478;2022-07-23T10:19:33;12.55;;;4.28;;
23146;SDS011;11742;53.532;-1.478;2022-07-23T10:22:01;79.95;;;8.13;;
23146;SDS011;11742;53.532;-1.478;2022-07-23T10:24:44;34.38;;;5.78;;
23146;SDS011;11742;53.532;-1.478;2022-07-23T10:27:48;20.77;;;5.03;;
23146;SDS011;11742;53.532;-1.478;2022-07-23T10:36:27;14.30;;;4.30;;
23146;SDS011;11742;53.532;-1.478;2022-07-23T10:39:12;11.02;;;4.28;;
23146;SDS011;11742;53.532;-1.478;2022-07-23T10:41:45;13.98;;;3.92;;
23146;SDS011;11742;53.532;-1.478;2022-07-23T10:44:12;12.40;;;3.88;;
23146;SDS011;11742;53.532;-1.478;2022-07-23T10:49:48;8.13;;;3.67;;
23146;SDS011;11742;53.532;-1.478;2022-07-23T10:57:08;7.18;;;3.40;;
23146;SDS011;11742;53.532;-1.478;2022-07-23T11:02:26;4.88;;;3.35;;
23146;SDS011;11742;53.532;-1.478;2022-07-23T11:04:54;4.63;;;3.13;;
23146;SDS011;11742;53.532;-1.478;2022-07-23T11:07:25;5.38;;;3.30;;
23146;SDS011;11742;53.532;-1.478;2022-07-23T11:09:51;7.57;;;3.30;;
23146;SDS011;11742;53.532;-1.478;2022-07-23T11:17:28;8.20;;;3.03;;
23146;SDS011;11742;53.532;-1.478;2022-07-23T11:27:53;3.63;;;2.30;;
23146;SDS011;11742;53.532;-1.478;2022-07-23T11:33:15;3.72;;;2.33;;
23146;SDS011;11742;53.532;-1.478;2022-07-23T11:35:50;4.60;;;3.00;;
23146;SDS011;11742;53.532;-1.478;2022-07-23T11:38:27;5.40;;;2.95;;
23146;SDS011;11742;53.532;-1.478;2022-07-23T11:40:56;10.27;;;2.75;;
23146;SDS011;11742;53.532;-1.478;2022-07-23T11:43:23;7.03;;;3.63;;
23146;SDS011;11742;53.532;-1.478;2022-07-23T11:45:50;6.63;;;2.72;;
23146;SDS011;11742;53.532;-1.478;2022-07-23T11:48:21;6.85;;;2.75;;
23146;SDS011;11742;53.532;-1.478;2022-07-23T11:50:49;4.13;;;2.45;;
23146;SDS011;11742;53.532;-1.478;2022-07-23T11:53:27;4.57;;;2.35;;
23146;SDS011;11742;53.532;-1.478;2022-07-23T11:56:06;4.55;;;2.25;;
23146;SDS011;11742;53.532;-1.478;2022-07-23T11:58:34;7.85;;;2.72;;
23146;SDS011;11742;53.532;-1.478;2022-07-23T12:01:00;2.67;;;2.20;;
23146;SDS011;11742;53.532;-1.478;2022-07-23T12:03:26;9.50;;;2.25;;
23146;SDS011;11742;53.532;-1.478;2022-07-23T12:05:56;7.53;;;3.00;;
23146;SDS011;11742;53.532;-1.478;2022-07-23T12:08:23;5.88;;;2.42;;
23146;SDS011;11742;53.532;-1.478;2022-07-23T12:10:49;28.55;;;3.17;;
23146;SDS011;11742;53.532;-1.478;2022-07-23T12:13:16;17.55;;;2.78;;
23146;SDS011;11742;53.532;-1.478;2022-07-23T12:15:45;16.02;;;2.55;;
23146;SDS011;11742;53.532;-1.478;2022-07-23T12:18:17;4.40;;;2.03;;
23146;SDS011;11742;53.532;-1.478;2022-07-23T12:20:49;7.22;;;1.95;;
23146;SDS011;11742;53.532;-1.478;2022-07-23T12:23:23;9.98;;;2.53;;
23146;SDS011;11742;53.532;-1.478;2022-07-23T12:25:50;6.55;;;1.85;;
23146;SDS011;11742;53.532;-1.478;2022-07-23T12:28:18;2.53;;;1.77;;
23146;SDS011;11742;53.532;-1.478;2022-07-23T12:30:54;4.90;;;1.95;;
23146;SDS011;11742;53.532;-1.478;2022-07-23T12:35:48;4.80;;;1.70;;
23146;SDS011;11742;53.532;-1.478;2022-07-23T12:38:16;1.77;;;1.27;;
23146;SDS011;11742;53.532;-1.478;2022-07-23T12:43:26;3.97;;;1.70;;
23146;SDS011;11742;53.532;-1.478;2022-07-23T12:46:04;2.85;;;1.50;;
23146;SDS011;11742;53.532;-1.478;2022-07-23T12:48:35;3.17;;;1.60;;
23146;SDS011;11742;53.532;-1.478;2022-07-23T12:53:45;3.95;;;1.40;;
23146;SDS011;11742;53.532;-1.478;2022-07-23T12:56:20;2.75;;;1.65;;
23146;SDS011;11742;53.532;-1.478;2022-07-23T12:58:57;2.90;;;1.45;;
23146;SDS011;11742;53.532;-1.478;2022-07-23T13:01:27;2.63;;;1.45;;
23146;SDS011;11742;53.532;-1.478;2022-07-23T13:04:05;1.67;;;1.17;;
23146;SDS011;11742;53.532;-1.478;2022-07-23T13:06:34;2.35;;;1.17;;
23146;SDS011;11742;53.532;-1.478;2022-07-23T13:09:00;2.55;;;1.02;;
23146;SDS011;11742;53.532;-1.478;2022-07-23T13:11:27;3.17;;;1.38;;
23146;SDS011;11742;53.532;-1.478;2022-07-23T13:13:52;1.33;;;1.20;;
23146;SDS011;11742;53.532;-1.478;2022-07-23T13:16:18;1.75;;;1.15;;
23146;SDS011;11742;53.532;-1.478;2022-07-23T13:18:44;2.05;;;1.10;;
23146;SDS011;11742;53.532;-1.478;2022-07-23T13:21:10;1.33;;;1.23;;
23146;SDS011;11742;53.532;-1.478;2022-07-23T13:23:36;1.48;;;1.10;;
23146;SDS011;11742;53.532;-1.478;2022-07-23T13:26:02;1.20;;;1.00;;
23146;SDS011;11742;53.532;-1.478;2022-07-23T13:28:28;2.00;;;1.08;;
23146;SDS011;11742;53.532;-1.478;2022-07-23T13:30:54;1.38;;;0.88;;
23146;SDS011;11742;53.532;-1.478;2022-07-23T13:33:20;1.88;;;1.23;;
23146;SDS011;11742;53.532;-1.478;2022-07-23T13:35:47;7.15;;;1.10;;
23146;SDS011;11742;53.532;-1.478;2022-07-23T13:38:14;3.92;;;1.38;;
23146;SDS011;11742;53.532;-1.478;2022-07-23T13:40:42;1.60;;;1.00;;
23146;SDS011;11742;53.532;-1.478;2022-07-23T13:43:09;2.20;;;1.08;;
23146;SDS011;11742;53.532;-1.478;2022-07-23T13:45:36;2.80;;;1.25;;
23146;SDS011;11742;53.532;-1.478;2022-07-23T13:48:03;2.75;;;1.10;;
23146;SDS011;11742;53.532;-1.478;2022-07-23T13:50:29;3.47;;;1.30;;
23146;SDS011;11742;53.532;-1.478;2022-07-23T13:52:55;1.92;;;1.20;;
23146;SDS011;11742;53.532;-1.478;2022-07-23T13:55:21;3.05;;;1.20;;
23146;SDS011;11742;53.532;-1.478;2022-07-23T13:57:47;2.95;;;1.23;;
23146;SDS011;11742;53.532;-1.478;2022-07-23T14:00:13;2.58;;;1.17;;
23146;SDS011;11742;53.532;-1.478;2022-07-23T14:02:40;1.40;;;1.08;;
23146;SDS011;11742;53.532;-1.478;2022-07-23T14:05:06;2.47;;;1.42;;
23146;SDS011;11742;53.532;-1.478;2022-07-23T14:07:34;1.40;;;1.23;;
23146;SDS011;11742;53.532;-1.478;2022-07-23T14:10:00;1.70;;;1.10;;
23146;SDS011;11742;53.532;-1.478;2022-07-23T14:12:26;1.40;;;1.10;;
23146;SDS011;11742;53.532;-1.478;2022-07-23T14:14:52;1.20;;;1.10;;
23146;SDS011;11742;53.532;-1.478;2022-07-23T14:17:18;3.47;;;1.33;;
23146;SDS011;11742;53.532;-1.478;2022-07-23T14:19:44;1.63;;;1.10;;
23146;SDS011;11742;53.532;-1.478;2022-07-23T14:22:10;1.50;;;1.20;;
23146;SDS011;11742;53.532;-1.478;2022-07-23T14:24:35;1.30;;;1.10;;
23146;SDS011;11742;53.532;-1.478;2022-07-23T14:27:02;1.20;;;1.10;;
23146;SDS011;11742;53.532;-1.478;2022-07-23T14:29:28;2.17;;;1.30;;
23146;SDS011;11742;53.532;-1.478;2022-07-23T14:31:54;3.47;;;1.20;;
23146;SDS011;11742;53.532;-1.478;2022-07-23T14:34:21;2.20;;;1.38;;
23146;SDS011;11742;53.532;-1.478;2022-07-23T14:36:46;2.40;;;1.20;;
23146;SDS011;11742;53.532;-1.478;2022-07-23T14:39:12;1.80;;;1.58;;
23146;SDS011;11742;53.532;-1.478;2022-07-23T14:41:38;3.60;;;1.77;;
23146;SDS011;11742;53.532;-1.478;2022-07-23T14:44:04;2.22;;;1.88;;
23146;SDS011;11742;53.532;-1.478;2022-07-23T14:46:31;2.25;;;1.75;;
23146;SDS011;11742;53.532;-1.478;2022-07-23T14:48:56;2.17;;;1.65;;
23146;SDS011;11742;53.532;-1.478;2022-07-23T14:51:22;3.65;;;1.55;;
23146;SDS011;11742;53.532;-1.478;2022-07-23T14:53:48;2.22;;;1.83;;
23146;SDS011;11742;53.532;-1.478;2022-07-23T14:56:14;1.98;;;1.77;;
23146;SDS011;11742;53.532;-1.478;2022-07-23T14:58:40;1.88;;;1.50;;
23146;SDS011;11742;53.532;-1.478;2022-07-23T15:01:06;1.98;;;1.63;;
23146;SDS011;11742;53.532;-1.478;2022-07-23T15:03:32;3.42;;;1.90;;
23146;SDS011;11742;53.532;-1.478;2022-07-23T15:05:58;2.53;;;1.73;;
23146;SDS011;11742;53.532;-1.478;2022-07-23T15:08:24;2.92;;;1.60;;
23146;SDS011;11742;53.532;-1.478;2022-07-23T15:10:50;3.03;;;1.77;;
23146;SDS011;11742;53.532;-1.478;2022-07-23T15:13:16;1.88;;;1.60;;
23146;SDS011;11742;53.532;-1.478;2022-07-23T15:15:42;1.70;;;1.60;;
23146;SDS011;11742;53.532;-1.478;2022-07-23T15:18:08;2.85;;;1.90;;
23146;SDS011;11742;53.532;-1.478;2022-07-23T15:20:34;2.38;;;1.92;;